Time;durP1;ratioP1;P1;durP2;ratioP2;P2;SDS_P1;SDS_P2;PMS_P1;PMS_P2;Temp;Humidity;BMP_temperature;BMP_pressure;BME280_temperature;BME280_humidity;BME280_pressure;Samples;Min_cycle;Max_cycle;Signal;HPM_P1;HPM_P2
2023/01/26 00:01:12;;;;;;;5.22;2.70;;;;;;;;;;5137250;27;20046;-78
2023/01/26 00:03:38;;;;;;;5.80;2.78;;;;;;;;;;5120582;27;20039;-77
2023/01/26 00:06:10;;;;;;;4.28;2.42;;;;;;;;;;5135840;27;20472;-77
2023/01/26 00:08:37;;;;;;;4.25;2.85;;;;;;;;;;5134977;27;20073;-78
2023/01/26 00:11:08;;;;;;;4.47;2.60;;;;;;;;;;5121821;27;20387;-75
2023/01/26 00:13:34;;;;;;;5.18;3.15;;;;;;;;;;5142040;27;20067;-77
2023/01/26 00:16:02;;;;;;;4.60;2.55;;;;;;;;;;5136366;27;20059;-76
2023/01/26 00:18:28;;;;;;;11.73;2.58;;;;;;;;;;5139635;27;20096;-77
2023/01/26 00:20:59;;;;;;;4.13;2.60;;;;;;;;;;5130300;27;20432;-77
2023/01/26 00:23:26;;;;;;;5.53;2.75;;;;;;;;;;5133588;27;20042;-76
2023/01/26 00:25:52;;;;;;;4.90;2.70;;;;;;;;;;5136436;27;20042;-76
2023/01/26 00:28:18;;;;;;;4.63;2.13;;;;;;;;;;5134153;27;20047;-75
2023/01/26 00:31:03;;;;;;;4.88;2.55;;;;;;;;;;5115013;27;20057;-75
2023/01/26 00:33:29;;;;;;;4.72;2.40;;;;;;;;;;5135097;27;20038;-76
2023/01/26 00:35:55;;;;;;;3.85;2.28;;;;;;;;;;5132440;27;20063;-77
2023/01/26 00:38:21;;;;;;;5.03;2.28;;;;;;;;;;5136081;27;20047;-74
2023/01/26 00:40:47;;;;;;;5.72;2.60;;;;;;;;;;5134239;27;20088;-75
2023/01/26 00:43:13;;;;;;;4.30;2.50;;;;;;;;;;5133918;27;20043;-75
2023/01/26 00:45:39;;;;;;;3.50;2.17;;;;;;;;;;5134760;27;20051;-77
2023/01/26 00:48:05;;;;;;;4.28;2.47;;;;;;;;;;5135207;27;20476;-78
2023/01/26 00:50:32;;;;;;;4.93;2.63;;;;;;;;;;5135457;27;20054;-77
2023/01/26 00:52:58;;;;;;;5.20;2.80;;;;;;;;;;5135891;27;20434;-76
2023/01/26 00:55:31;;;;;;;3.80;2.13;;;;;;;;;;5138793;27;20043;-74
2023/01/26 00:58:01;;;;;;;4.55;2.67;;;;;;;;;;5132175;27;20078;-76
2023/01/26 01:00:28;;;;;;;3.92;2.53;;;;;;;;;;5131370;27;20446;-79
2023/01/26 01:02:55;;;;;;;4.03;2.65;;;;;;;;;;5130808;27;20043;-76
2023/01/26 01:05:22;;;;;;;4.18;2.70;;;;;;;;;;5137758;27;20125;-76
2023/01/26 01:07:48;;;;;;;6.50;3.28;;;;;;;;;;5131205;27;20110;-74
2023/01/26 01:10:14;;;;;;;3.92;2.70;;;;;;;;;;5138767;27;20055;-79
2023/01/26 01:12:40;;;;;;;4.30;2.80;;;;;;;;;;5133947;27;20046;-75
2023/01/26 01:15:07;;;;;;;6.13;3.13;;;;;;;;;;5138997;27;20478;-73
2023/01/26 01:17:35;;;;;;;5.30;3.25;;;;;;;;;;5137237;27;20495;-77
2023/01/26 01:20:02;;;;;;;5.45;2.92;;;;;;;;;;5140872;27;20047;-76
2023/01/26 01:22:28;;;;;;;9.32;3.15;;;;;;;;;;5136517;27;20054;-76
2023/01/26 01:24:55;;;;;;;4.38;2.83;;;;;;;;;;5135329;27;20050;-75
2023/01/26 01:27:20;;;;;;;4.72;3.25;;;;;;;;;;5119953;27;20053;-76
2023/01/26 01:29:49;;;;;;;5.85;3.05;;;;;;;;;;5132935;27;20047;-75
2023/01/26 01:32:15;;;;;;;7.80;2.92;;;;;;;;;;5134883;27;20047;-76
2023/01/26 01:34:41;;;;;;;6.15;2.92;;;;;;;;;;5138318;27;20054;-74
2023/01/26 01:37:07;;;;;;;4.32;3.13;;;;;;;;;;5132618;27;20039;-74
2023/01/26 01:39:34;;;;;;;5.40;3.00;;;;;;;;;;5135488;27;20445;-74
2023/01/26 01:41:59;;;;;;;4.88;2.80;;;;;;;;;;5132416;27;20115;-76
2023/01/26 01:44:25;;;;;;;3.88;2.53;;;;;;;;;;5130939;27;20127;-78
2023/01/26 01:47:01;;;;;;;4.85;2.50;;;;;;;;;;5136947;27;20042;-77
2023/01/26 01:49:33;;;;;;;4.30;2.63;;;;;;;;;;5138127;27;20117;-75
2023/01/26 01:52:08;;;;;;;4.20;2.55;;;;;;;;;;5131126;27;20042;-73
2023/01/26 01:54:50;;;;;;;3.92;2.60;;;;;;;;;;5138810;27;20050;-75
2023/01/26 01:57:26;;;;;;;7.60;2.78;;;;;;;;;;5116069;27;20498;-75
2023/01/26 02:00:03;;;;;;;4.22;2.50;;;;;;;;;;5131667;27;20388;-76
2023/01/26 02:02:29;;;;;;;5.60;2.40;;;;;;;;;;5144575;27;20072;-75
2023/01/26 02:05:01;;;;;;;2.80;2.00;;;;;;;;;;5137454;27;20047;-76
2023/01/26 02:07:29;;;;;;;4.97;2.42;;;;;;;;;;5136970;27;20555;-74
2023/01/26 02:12:40;;;;;;;;;;;;;;;;;;5140681;27;20058;-73
2023/01/26 02:15:07;;;;;;;3.92;2.33;;;;;;;;;;5136227;27;19919;-77
2023/01/26 02:17:32;;;;;;;3.80;2.50;;;;;;;;;;5136317;27;20078;-77
2023/01/26 02:20:13;;;;;;;6.72;2.40;;;;;;;;;;5137515;27;20042;-75
2023/01/26 02:22:46;;;;;;;5.13;2.53;;;;;;;;;;5136876;27;20055;-76
2023/01/26 02:25:41;;;;;;;4.22;2.60;;;;;;;;;;5136397;27;20039;-75
2023/01/26 02:28:07;;;;;;;4.50;2.70;;;;;;;;;;5140685;27;20151;-74
2023/01/26 02:30:33;;;;;;;4.10;2.58;;;;;;;;;;5135784;27;20539;-76
2023/01/26 02:32:59;;;;;;;4.10;2.70;;;;;;;;;;5134526;27;20951;-75
2023/01/26 02:35:26;;;;;;;8.27;2.65;;;;;;;;;;5135367;27;20058;-75
2023/01/26 02:37:52;;;;;;;4.25;2.83;;;;;;;;;;5137201;27;20130;-76
2023/01/26 02:40:37;;;;;;;4.10;2.70;;;;;;;;;;5136683;27;20112;-77
2023/01/26 02:43:02;;;;;;;3.72;2.60;;;;;;;;;;5137412;27;20126;-75
2023/01/26 02:45:31;;;;;;;4.93;3.03;;;;;;;;;;5134366;27;20099;-74
2023/01/26 02:47:58;;;;;;;4.88;2.85;;;;;;;;;;5134563;27;20038;-76
2023/01/26 02:50:24;;;;;;;3.65;2.60;;;;;;;;;;5136064;27;20129;-75
2023/01/26 02:52:50;;;;;;;4.63;2.75;;;;;;;;;;5137250;27;20134;-77
2023/01/26 02:55:23;;;;;;;5.15;2.65;;;;;;;;;;5136332;27;20062;-74
2023/01/26 02:58:09;;;;;;;4.13;2.63;;;;;;;;;;5133376;27;20187;-75
2023/01/26 03:00:36;;;;;;;3.67;2.55;;;;;;;;;;5135586;27;20474;-75
2023/01/26 03:03:11;;;;;;;4.45;3.05;;;;;;;;;;5137545;27;20047;-76
2023/01/26 03:05:37;;;;;;;3.90;2.63;;;;;;;;;;5134113;27;20131;-76
2023/01/26 03:08:04;;;;;;;4.90;2.70;;;;;;;;;;5136586;27;20043;-75
2023/01/26 03:10:33;;;;;;;3.88;2.50;;;;;;;;;;5131491;27;20095;-73
2023/01/26 03:12:58;;;;;;;4.07;2.65;;;;;;;;;;5130868;27;20420;-75
2023/01/26 03:15:51;;;;;;;5.75;2.80;;;;;;;;;;5137310;27;20130;-75
2023/01/26 03:29:23;;;;;;;3.95;2.55;;;;;;;;;;5131375;27;19926;-74
2023/01/26 03:31:49;;;;;;;4.43;2.78;;;;;;;;;;5141174;27;20046;-73
2023/01/26 03:34:15;;;;;;;4.75;2.97;;;;;;;;;;5143558;27;20403;-74
2023/01/26 03:36:42;;;;;;;4.80;2.80;;;;;;;;;;5133390;27;20369;-75
2023/01/26 03:39:08;;;;;;;5.93;2.97;;;;;;;;;;5136882;27;20047;-75
2023/01/26 03:58:00;;;;;;;3.97;2.72;;;;;;;;;;5132062;27;20047;-75
2023/01/26 04:00:26;;;;;;;3.95;2.78;;;;;;;;;;5137757;27;20047;-74
2023/01/26 04:08:22;;;;;;;5.72;2.75;;;;;;;;;;5136065;27;20538;-74
2023/01/26 04:10:53;;;;;;;5.13;2.47;;;;;;;;;;5134606;27;20582;-76
2023/01/26 04:21:35;;;;;;;5.47;2.70;;;;;;;;;;5132740;27;20039;-76
2023/01/26 04:24:08;;;;;;;6.35;2.78;;;;;;;;;;5127729;27;20072;-74
2023/01/26 04:26:36;;;;;;;5.03;2.90;;;;;;;;;;5134526;27;20930;-74
2023/01/26 04:29:10;;;;;;;4.35;2.72;;;;;;;;;;5135612;27;20057;-75
2023/01/26 04:31:36;;;;;;;3.70;2.60;;;;;;;;;;5126880;27;20141;-74
2023/01/26 04:34:04;;;;;;;3.53;2.30;;;;;;;;;;5128605;27;20778;-76
2023/01/26 04:36:30;;;;;;;4.70;3.10;;;;;;;;;;5132836;27;20099;-75
2023/01/26 04:38:56;;;;;;;4.78;2.80;;;;;;;;;;5129665;27;20055;-73
2023/01/26 04:41:22;;;;;;;4.70;2.80;;;;;;;;;;5129117;27;20035;-74
2023/01/26 04:43:49;;;;;;;6.50;2.83;;;;;;;;;;5119215;27;20055;-76
2023/01/26 04:46:15;;;;;;;4.20;2.60;;;;;;;;;;5132005;27;20361;-76
2023/01/26 04:48:41;;;;;;;4.10;2.60;;;;;;;;;;5140225;27;20043;-74
2023/01/26 04:51:12;;;;;;;3.28;2.25;;;;;;;;;;5137877;27;20066;-75
2023/01/26 04:53:38;;;;;;;4.40;2.45;;;;;;;;;;5136994;27;20672;-73
2023/01/26 04:56:04;;;;;;;8.40;2.67;;;;;;;;;;5128698;27;20047;-75
2023/01/26 04:58:32;;;;;;;3.85;2.42;;;;;;;;;;5140251;27;20050;-75
2023/01/26 05:00:57;;;;;;;3.55;2.47;;;;;;;;;;5134961;27;20038;-76
2023/01/26 05:03:25;;;;;;;3.80;2.55;;;;;;;;;;5141377;27;20050;-76
2023/01/26 05:05:52;;;;;;;3.22;2.05;;;;;;;;;;5133433;27;20528;-77
2023/01/26 05:08:20;;;;;;;6.90;2.50;;;;;;;;;;5137088;27;20061;-75
2023/01/26 05:10:46;;;;;;;3.30;2.10;;;;;;;;;;5135023;27;20069;-74
2023/01/26 05:13:12;;;;;;;2.65;1.90;;;;;;;;;;5139732;27;20640;-76
2023/01/26 05:15:38;;;;;;;4.30;2.08;;;;;;;;;;5135142;27;20195;-75
2023/01/26 05:18:05;;;;;;;3.05;2.20;;;;;;;;;;5138341;27;20047;-76
2023/01/26 05:20:32;;;;;;;3.10;2.20;;;;;;;;;;5132562;27;20074;-73
2023/01/26 05:22:58;;;;;;;3.72;2.15;;;;;;;;;;5136448;27;20047;-74
2023/01/26 05:25:24;;;;;;;3.47;2.25;;;;;;;;;;5099864;27;20046;-75
2023/01/26 05:27:51;;;;;;;4.00;2.28;;;;;;;;;;5140354;27;20047;-75
2023/01/26 05:30:17;;;;;;;5.20;2.40;;;;;;;;;;5133298;27;20050;-73
2023/01/26 05:32:44;;;;;;;6.20;2.50;;;;;;;;;;5139066;27;20578;-74
2023/01/26 05:35:09;;;;;;;3.17;2.40;;;;;;;;;;5137444;27;20694;-74
2023/01/26 05:37:36;;;;;;;4.32;2.42;;;;;;;;;;5135597;27;20146;-76
2023/01/26 05:40:02;;;;;;;5.80;2.80;;;;;;;;;;5138853;27;20046;-74
2023/01/26 05:42:28;;;;;;;7.03;2.80;;;;;;;;;;5128961;27;20062;-74
2023/01/26 05:44:54;;;;;;;5.70;2.97;;;;;;;;;;5132168;27;20068;-73
2023/01/26 05:47:21;;;;;;;4.95;2.88;;;;;;;;;;5138643;27;20054;-74
2023/01/26 05:49:46;;;;;;;5.47;2.97;;;;;;;;;;5132572;27;20043;-76
2023/01/26 05:52:18;;;;;;;6.82;2.90;;;;;;;;;;5140867;27;20035;-76
2023/01/26 05:54:43;;;;;;;8.25;3.15;;;;;;;;;;5138062;27;20130;-77
2023/01/26 05:57:10;;;;;;;6.32;3.03;;;;;;;;;;5135115;27;20511;-75
2023/01/26 05:59:37;;;;;;;8.30;2.88;;;;;;;;;;5132474;27;20448;-77
2023/01/26 06:02:03;;;;;;;4.55;2.80;;;;;;;;;;5133641;27;20391;-77
2023/01/26 06:04:29;;;;;;;4.57;3.00;;;;;;;;;;5140092;27;20400;-78
2023/01/26 06:06:58;;;;;;;3.30;2.50;;;;;;;;;;5137329;27;20580;-78
2023/01/26 06:09:24;;;;;;;4.32;2.75;;;;;;;;;;5134785;27;20121;-75
2023/01/26 06:11:50;;;;;;;5.57;2.67;;;;;;;;;;5138809;27;20058;-76
2023/01/26 06:14:16;;;;;;;4.55;2.50;;;;;;;;;;5145831;27;20043;-73
2023/01/26 06:16:42;;;;;;;5.90;3.17;;;;;;;;;;5143122;27;20407;-77
2023/01/26 06:19:09;;;;;;;4.97;2.72;;;;;;;;;;5137333;27;20043;-78
2023/01/26 06:21:35;;;;;;;4.30;2.60;;;;;;;;;;5112284;27;20065;-77
2023/01/26 06:24:02;;;;;;;7.43;2.60;;;;;;;;;;5129690;27;20094;-77
2023/01/26 06:26:28;;;;;;;5.28;2.88;;;;;;;;;;5137910;27;20035;-76
2023/01/26 06:28:54;;;;;;;5.28;3.00;;;;;;;;;;5134158;27;20062;-78
2023/01/26 06:31:23;;;;;;;4.28;2.60;;;;;;;;;;5134300;27;20047;-76
2023/01/26 06:33:50;;;;;;;6.93;2.83;;;;;;;;;;5135863;27;20122;-78
2023/01/26 06:36:16;;;;;;;5.88;2.55;;;;;;;;;;5130872;27;20499;-80
2023/01/26 06:38:49;;;;;;;6.78;2.80;;;;;;;;;;5133613;27;20046;-77
2023/01/26 06:41:16;;;;;;;5.40;2.30;;;;;;;;;;5137247;27;20095;-78
2023/01/26 06:43:47;;;;;;;6.07;2.50;;;;;;;;;;5136289;27;20461;-79
2023/01/26 06:46:14;;;;;;;5.35;2.05;;;;;;;;;;5137948;27;20050;-78
2023/01/26 06:48:40;;;;;;;5.30;2.42;;;;;;;;;;5136921;27;20039;-71
2023/01/26 06:51:15;;;;;;;14.15;2.80;;;;;;;;;;5139332;27;20659;-74
2023/01/26 06:53:52;;;;;;;3.50;2.17;;;;;;;;;;5135713;27;20519;-73
2023/01/26 06:56:18;;;;;;;5.07;2.50;;;;;;;;;;5133705;27;20068;-78
2023/01/26 06:58:44;;;;;;;4.80;2.72;;;;;;;;;;5130096;27;20755;-76
2023/01/26 07:01:21;;;;;;;5.43;2.83;;;;;;;;;;5139040;27;20050;-74
2023/01/26 07:03:48;;;;;;;7.45;3.03;;;;;;;;;;5135789;27;20136;-77
2023/01/26 07:06:14;;;;;;;4.82;2.90;;;;;;;;;;5110971;27;20051;-75
2023/01/26 07:08:40;;;;;;;4.53;2.75;;;;;;;;;;5134154;27;20053;-75
2023/01/26 07:11:07;;;;;;;6.95;2.83;;;;;;;;;;5135106;27;20071;-75
2023/01/26 07:13:33;;;;;;;4.68;2.58;;;;;;;;;;5129123;27;20047;-75
2023/01/26 07:16:07;;;;;;;8.32;2.97;;;;;;;;;;5130276;27;20047;-74
2023/01/26 07:18:33;;;;;;;4.60;2.85;;;;;;;;;;5132078;27;20074;-77
2023/01/26 07:21:03;;;;;;;8.63;2.45;;;;;;;;;;5138700;27;20151;-75
2023/01/26 07:23:29;;;;;;;7.43;2.60;;;;;;;;;;5129993;27;20073;-79
2023/01/26 07:25:55;;;;;;;3.88;2.33;;;;;;;;;;5137174;27;20035;-75
2023/01/26 07:28:22;;;;;;;4.78;2.90;;;;;;;;;;5132920;27;20376;-73
2023/01/26 07:30:48;;;;;;;6.95;2.67;;;;;;;;;;5124556;27;20878;-75
2023/01/26 07:33:14;;;;;;;4.32;2.90;;;;;;;;;;5128829;27;20112;-72
2023/01/26 07:35:40;;;;;;;6.82;2.60;;;;;;;;;;5131536;27;20157;-71
2023/01/26 07:38:07;;;;;;;4.38;2.78;;;;;;;;;;5115556;27;20572;-74
2023/01/26 07:40:34;;;;;;;5.18;2.80;;;;;;;;;;5136115;27;20067;-69
2023/01/26 07:43:00;;;;;;;6.05;3.00;;;;;;;;;;5135218;27;20043;-77
2023/01/26 07:45:26;;;;;;;9.05;2.70;;;;;;;;;;5134229;27;20043;-74
2023/01/26 07:47:56;;;;;;;10.60;2.88;;;;;;;;;;5134946;27;20072;-71
2023/01/26 07:50:24;;;;;;;6.45;2.72;;;;;;;;;;5132237;27;20052;-73
2023/01/26 07:52:53;;;;;;;8.20;3.15;;;;;;;;;;5138494;27;20474;-74
2023/01/26 07:55:20;;;;;;;7.22;2.90;;;;;;;;;;5138504;27;20054;-73
2023/01/26 07:57:49;;;;;;;6.82;3.08;;;;;;;;;;5141382;27;20088;-75
2023/01/26 08:00:16;;;;;;;10.38;3.08;;;;;;;;;;5137122;27;20444;-75
2023/01/26 08:02:42;;;;;;;3.97;2.35;;;;;;;;;;5132222;27;20550;-75
2023/01/26 08:05:08;;;;;;;8.50;3.03;;;;;;;;;;5128102;27;20051;-74
2023/01/26 08:07:34;;;;;;;7.60;2.88;;;;;;;;;;5131927;27;20461;-75
2023/01/26 08:10:00;;;;;;;11.48;3.15;;;;;;;;;;5138321;27;20065;-71
2023/01/26 08:12:27;;;;;;;8.23;3.38;;;;;;;;;;5137967;27;20496;-76
2023/01/26 08:14:53;;;;;;;10.35;3.33;;;;;;;;;;5133241;27;20043;-74
2023/01/26 08:17:19;;;;;;;12.60;3.92;;;;;;;;;;5131132;27;20042;-73
2023/01/26 08:19:45;;;;;;;12.57;4.90;;;;;;;;;;5131251;27;20500;-74
2023/01/26 08:22:11;;;;;;;8.73;4.85;;;;;;;;;;5133458;27;20043;-74
2023/01/26 08:24:37;;;;;;;12.50;4.45;;;;;;;;;;5124212;27;20416;-75
2023/01/26 08:27:03;;;;;;;11.10;4.47;;;;;;;;;;5134661;27;20061;-75
2023/01/26 08:29:29;;;;;;;23.17;5.10;;;;;;;;;;5133449;27;20046;-74
2023/01/26 08:31:55;;;;;;;11.00;4.53;;;;;;;;;;5138648;27;20038;-73
2023/01/26 08:34:21;;;;;;;15.48;4.75;;;;;;;;;;5138846;27;20071;-75
2023/01/26 08:36:48;;;;;;;16.83;5.57;;;;;;;;;;5116761;27;20035;-74
2023/01/26 08:39:14;;;;;;;12.75;5.40;;;;;;;;;;5140552;27;20726;-73
2023/01/26 08:41:40;;;;;;;17.05;5.97;;;;;;;;;;5138956;27;20054;-75
2023/01/26 08:44:06;;;;;;;15.23;6.13;;;;;;;;;;5136855;27;20039;-74
2023/01/26 08:46:32;;;;;;;18.52;6.10;;;;;;;;;;5137481;27;20053;-73
2023/01/26 08:48:58;;;;;;;13.90;5.93;;;;;;;;;;5133467;27;20054;-73
2023/01/26 08:51:24;;;;;;;14.88;6.88;;;;;;;;;;5137281;27;20081;-73
2023/01/26 08:53:53;;;;;;;13.98;5.80;;;;;;;;;;5137455;27;20284;-73
2023/01/26 08:56:19;;;;;;;14.15;5.60;;;;;;;;;;5138347;27;20079;-74
2023/01/26 08:58:45;;;;;;;21.60;6.22;;;;;;;;;;5138545;27;20043;-73
2023/01/26 09:01:13;;;;;;;7.88;5.35;;;;;;;;;;5133883;27;20181;-73
2023/01/26 09:03:39;;;;;;;16.88;6.05;;;;;;;;;;5138426;27;20422;-73
2023/01/26 09:06:07;;;;;;;16.83;7.03;;;;;;;;;;5135383;27;20054;-74
2023/01/26 09:08:34;;;;;;;11.65;5.47;;;;;;;;;;5137120;27;20051;-74
2023/01/26 09:11:00;;;;;;;14.05;5.70;;;;;;;;;;5137652;27;20038;-74
2023/01/26 09:13:26;;;;;;;14.00;6.10;;;;;;;;;;5137936;27;20042;-72
2023/01/26 09:15:52;;;;;;;19.50;6.22;;;;;;;;;;5113829;27;20061;-74
2023/01/26 09:18:18;;;;;;;12.60;6.30;;;;;;;;;;5138696;27;20384;-73
2023/01/26 09:20:44;;;;;;;13.95;6.63;;;;;;;;;;5134655;27;20059;-70
2023/01/26 09:23:11;;;;;;;13.77;6.05;;;;;;;;;;5130900;27;20047;-72
2023/01/26 09:25:38;;;;;;;12.48;6.63;;;;;;;;;;5136264;27;20141;-67
2023/01/26 09:28:05;;;;;;;17.40;7.95;;;;;;;;;;5133406;27;20159;-69
2023/01/26 09:30:31;;;;;;;23.92;8.57;;;;;;;;;;5129910;27;20051;-69
2023/01/26 09:33:02;;;;;;;26.15;8.10;;;;;;;;;;5136513;27;20055;-67
2023/01/26 09:35:29;;;;;;;21.10;7.25;;;;;;;;;;5136035;27;20058;-68
2023/01/26 09:37:55;;;;;;;15.48;7.50;;;;;;;;;;5133652;27;20475;-70
2023/01/26 09:40:38;;;;;;;18.35;7.18;;;;;;;;;;5133875;27;20554;-76
2023/01/26 09:43:30;;;;;;;13.98;7.00;;;;;;;;;;5131284;27;20522;-75
2023/01/26 09:46:20;;;;;;;13.48;6.78;;;;;;;;;;5134070;27;20346;-75
2023/01/26 09:49:11;;;;;;;15.50;6.68;;;;;;;;;;5125460;27;20384;-72
2023/01/26 09:51:40;;;;;;;16.42;7.35;;;;;;;;;;5137375;27;20103;-76
2023/01/26 09:54:32;;;;;;;16.17;6.95;;;;;;;;;;5140423;27;20046;-75
2023/01/26 09:57:13;;;;;;;16.13;7.30;;;;;;;;;;5140222;27;20065;-74
2023/01/26 09:59:48;;;;;;;17.60;6.90;;;;;;;;;;5141624;27;20411;-74
2023/01/26 10:02:17;;;;;;;15.85;6.80;;;;;;;;;;5131137;27;20502;-73
2023/01/26 10:04:47;;;;;;;11.45;6.82;;;;;;;;;;5138323;27;20046;-70
2023/01/26 10:07:14;;;;;;;14.95;6.80;;;;;;;;;;5133745;27;20134;-70
2023/01/26 10:09:44;;;;;;;14.35;6.75;;;;;;;;;;5126561;27;20570;-70
2023/01/26 10:12:18;;;;;;;8.98;6.15;;;;;;;;;;5129042;27;20038;-67
2023/01/26 10:14:52;;;;;;;15.98;5.97;;;;;;;;;;5131220;27;20633;-68
2023/01/26 10:17:32;;;;;;;8.35;5.18;;;;;;;;;;5133724;27;20050;-73
2023/01/26 10:20:23;;;;;;;16.10;5.60;;;;;;;;;;5131478;27;20051;-73
2023/01/26 10:22:54;;;;;;;10.55;5.38;;;;;;;;;;5133213;27;20050;-72
2023/01/26 10:25:32;;;;;;;13.15;5.53;;;;;;;;;;5135897;27;20046;-75
2023/01/26 10:27:58;;;;;;;14.23;6.13;;;;;;;;;;5125642;27;20138;-73
2023/01/26 10:30:24;;;;;;;13.18;6.55;;;;;;;;;;5131617;27;20054;-73
2023/01/26 10:32:51;;;;;;;17.17;6.13;;;;;;;;;;5136482;27;20070;-73
2023/01/26 10:35:24;;;;;;;14.57;6.97;;;;;;;;;;5119903;27;20439;-74
2023/01/26 10:37:53;;;;;;;15.95;7.20;;;;;;;;;;5135249;27;20123;-71
2023/01/26 10:40:20;;;;;;;11.77;6.30;;;;;;;;;;5132728;27;20049;-72
2023/01/26 10:42:56;;;;;;;13.25;7.22;;;;;;;;;;5137035;27;20046;-73
2023/01/26 10:45:29;;;;;;;12.32;6.88;;;;;;;;;;5129330;27;20091;-73
2023/01/26 10:48:25;;;;;;;15.98;7.50;;;;;;;;;;5135502;27;20046;-74
2023/01/26 10:50:52;;;;;;;18.13;7.35;;;;;;;;;;5135027;27;20498;-74
2023/01/26 10:53:28;;;;;;;18.30;7.75;;;;;;;;;;5138875;27;20038;-74
2023/01/26 10:56:04;;;;;;;19.48;7.80;;;;;;;;;;5134229;27;20049;-73
2023/01/26 10:58:50;;;;;;;24.02;8.05;;;;;;;;;;5129084;27;20039;-74
2023/01/26 11:01:17;;;;;;;17.33;7.43;;;;;;;;;;5139240;27;20636;-73
2023/01/26 11:04:06;;;;;;;21.90;8.65;;;;;;;;;;5139777;27;20073;-75
2023/01/26 11:06:32;;;;;;;18.15;7.57;;;;;;;;;;5129226;27;20411;-74
2023/01/26 11:09:19;;;;;;;16.05;7.57;;;;;;;;;;5130536;27;20043;-74
2023/01/26 11:12:00;;;;;;;22.92;8.13;;;;;;;;;;5127775;27;20047;-73
2023/01/26 11:14:28;;;;;;;25.88;9.45;;;;;;;;;;5137796;27;20080;-75
2023/01/26 11:17:19;;;;;;;28.77;10.85;;;;;;;;;;5142742;27;20114;-75
2023/01/26 11:20:11;;;;;;;22.85;9.40;;;;;;;;;;5137478;27;20047;-74
2023/01/26 11:22:54;;;;;;;18.80;8.68;;;;;;;;;;5133591;27;20039;-75
2023/01/26 11:25:41;;;;;;;15.80;7.50;;;;;;;;;;5140688;27;20051;-74
2023/01/26 11:28:26;;;;;;;12.88;6.07;;;;;;;;;;5132126;27;20043;-71
2023/01/26 11:31:09;;;;;;;15.17;5.43;;;;;;;;;;5126624;27;20582;-70
2023/01/26 11:33:41;;;;;;;11.30;5.75;;;;;;;;;;5134219;27;20474;-72
2023/01/26 11:36:27;;;;;;;10.75;4.93;;;;;;;;;;5131995;27;20043;-75
2023/01/26 11:39:16;;;;;;;7.75;4.50;;;;;;;;;;5135718;27;20193;-74
2023/01/26 11:42:10;;;;;;;9.05;4.15;;;;;;;;;;5133501;27;20043;-73
2023/01/26 11:45:16;;;;;;;5.95;3.38;;;;;;;;;;5136442;27;20057;-76
2023/01/26 11:47:42;;;;;;;;;;;;;;;;;;5128426;27;20070;-74
2023/01/26 11:50:33;;;;;;;10.25;3.28;;;;;;;;;;5129741;27;19972;-75
2023/01/26 11:53:21;;;;;;;6.78;2.83;;;;;;;;;;5132295;27;20117;-76
2023/01/26 11:55:50;;;;;;;6.93;2.50;;;;;;;;;;5129776;27;20039;-75
2023/01/26 11:58:28;;;;;;;3.38;2.28;;;;;;;;;;5134812;27;20042;-74
2023/01/26 12:01:06;;;;;;;4.65;2.80;;;;;;;;;;5134850;27;20050;-74
2023/01/26 12:03:44;;;;;;;6.65;3.00;;;;;;;;;;5124142;27;20047;-72
2023/01/26 12:06:17;;;;;;;8.48;2.75;;;;;;;;;;5134525;27;20055;-74
2023/01/26 12:08:50;;;;;;;5.50;2.38;;;;;;;;;;5140604;27;20483;-74
2023/01/26 12:11:22;;;;;;;5.72;2.15;;;;;;;;;;5137941;27;20038;-74
2023/01/26 12:14:11;;;;;;;2.83;1.80;;;;;;;;;;5135579;27;20053;-74
2023/01/26 12:16:40;;;;;;;5.93;2.67;;;;;;;;;;5117585;27;20043;-72
2023/01/26 12:19:14;;;;;;;3.33;1.80;;;;;;;;;;5131138;27;20187;-73
2023/01/26 12:21:44;;;;;;;8.70;2.10;;;;;;;;;;5137715;27;20054;-72
2023/01/26 12:24:19;;;;;;;4.28;2.58;;;;;;;;;;5136080;27;20065;-73
2023/01/26 12:26:49;;;;;;;5.20;2.72;;;;;;;;;;5129024;27;20050;-74
2023/01/26 12:29:44;;;;;;;3.80;2.10;;;;;;;;;;5132065;27;20285;-69
2023/01/26 12:32:12;;;;;;;4.97;2.05;;;;;;;;;;5136149;27;20062;-73
2023/01/26 12:34:38;;;;;;;3.33;2.00;;;;;;;;;;5130793;27;20766;-74
2023/01/26 12:37:51;;;;;;;3.40;1.70;;;;;;;;;;5130444;27;20058;-74
2023/01/26 12:40:40;;;;;;;4.15;1.80;;;;;;;;;;5135051;27;20265;-74
2023/01/26 12:43:33;;;;;;;4.82;2.10;;;;;;;;;;5135987;27;20035;-76
2023/01/26 12:46:01;;;;;;;6.80;2.88;;;;;;;;;;5109867;27;20176;-75
2023/01/26 12:48:36;;;;;;;7.50;3.05;;;;;;;;;;5131993;27;20585;-74
2023/01/26 12:51:17;;;;;;;5.55;1.70;;;;;;;;;;5137658;27;20070;-74
2023/01/26 12:54:03;;;;;;;5.28;1.90;;;;;;;;;;5132783;27;20047;-76
2023/01/26 12:56:39;;;;;;;4.95;2.40;;;;;;;;;;5115723;27;20810;-75
2023/01/26 12:59:21;;;;;;;6.25;2.20;;;;;;;;;;5132929;27;20043;-76
2023/01/26 13:01:47;;;;;;;5.65;2.10;;;;;;;;;;5132185;27;20054;-74
2023/01/26 13:04:15;;;;;;;3.35;1.90;;;;;;;;;;5136175;27;20047;-75
2023/01/26 13:06:42;;;;;;;3.38;2.03;;;;;;;;;;5136415;27;20118;-74
2023/01/26 13:09:22;;;;;;;3.78;2.22;;;;;;;;;;5141758;27;20047;-74
2023/01/26 13:11:49;;;;;;;2.50;1.40;;;;;;;;;;5131420;27;20051;-74
2023/01/26 13:14:41;;;;;;;2.40;1.60;;;;;;;;;;5137241;27;20049;-75
2023/01/26 13:17:16;;;;;;;9.32;2.25;;;;;;;;;;5132095;27;20677;-74
2023/01/26 13:19:42;;;;;;;2.65;1.40;;;;;;;;;;5134911;27;20404;-76
2023/01/26 13:22:17;;;;;;;2.13;1.33;;;;;;;;;;5136242;27;20054;-75
2023/01/26 13:25:15;;;;;;;2.10;1.45;;;;;;;;;;5137171;27;20203;-74
2023/01/26 13:27:54;;;;;;;5.25;1.90;;;;;;;;;;5098362;27;20042;-71
2023/01/26 13:30:26;;;;;;;3.33;2.05;;;;;;;;;;5110160;27;20038;-74
2023/01/26 13:33:11;;;;;;;2.67;1.50;;;;;;;;;;5141992;27;20529;-69
2023/01/26 13:35:38;;;;;;;3.88;2.30;;;;;;;;;;5138268;27;20486;-74
2023/01/26 13:38:30;;;;;;;3.30;2.30;;;;;;;;;;5137922;27;20045;-75
2023/01/26 13:40:57;;;;;;;3.78;2.40;;;;;;;;;;5083401;27;20059;-75
2023/01/26 13:43:56;;;;;;;5.10;1.80;;;;;;;;;;5142801;27;20699;-74
2023/01/26 13:46:39;;;;;;;3.53;2.20;;;;;;;;;;5104750;27;20043;-73
2023/01/26 13:49:21;;;;;;;4.18;2.50;;;;;;;;;;5130987;27;20045;-75
2023/01/26 13:51:48;;;;;;;2.22;1.60;;;;;;;;;;5139451;27;20051;-74
2023/01/26 13:54:16;;;;;;;2.65;1.30;;;;;;;;;;5140378;27;20039;-75
2023/01/26 13:57:00;;;;;;;3.17;1.50;;;;;;;;;;5144795;27;20085;-76
2023/01/26 13:59:26;;;;;;;4.95;1.80;;;;;;;;;;5142538;27;20142;-77
2023/01/26 14:01:54;;;;;;;3.10;1.40;;;;;;;;;;5139348;27;20051;-75
2023/01/26 14:04:31;;;;;;;2.50;1.60;;;;;;;;;;5137623;27;20567;-76
2023/01/26 14:07:16;;;;;;;2.53;1.60;;;;;;;;;;5137699;27;20047;-77
2023/01/26 14:10:01;;;;;;;2.60;1.40;;;;;;;;;;5137481;27;20047;-78
2023/01/26 14:12:32;;;;;;;2.53;1.60;;;;;;;;;;5136966;27;20530;-76
2023/01/26 14:15:04;;;;;;;2.30;1.70;;;;;;;;;;5137700;27;20050;-78
2023/01/26 14:17:33;;;;;;;10.93;1.88;;;;;;;;;;5107254;27;20875;-76
2023/01/26 14:20:02;;;;;;;4.43;1.75;;;;;;;;;;5137804;27;20108;-77
2023/01/26 14:22:28;;;;;;;5.10;2.25;;;;;;;;;;5135646;27;20252;-75
2023/01/26 14:24:54;;;;;;;3.38;1.50;;;;;;;;;;5131122;27;20051;-76
2023/01/26 14:27:36;;;;;;;5.85;2.00;;;;;;;;;;5143302;27;20050;-75
2023/01/26 14:30:27;;;;;;;2.38;1.52;;;;;;;;;;5137646;27;20127;-76
2023/01/26 14:33:05;;;;;;;2.55;1.40;;;;;;;;;;5126090;27;20047;-76
2023/01/26 14:35:31;;;;;;;2.15;1.45;;;;;;;;;;5134872;27;20096;-74
2023/01/26 14:38:16;;;;;;;3.40;1.42;;;;;;;;;;5117078;27;20052;-76
2023/01/26 14:40:50;;;;;;;6.47;2.20;;;;;;;;;;5130244;27;20045;-81
2023/01/26 14:43:17;;;;;;;2.30;1.60;;;;;;;;;;5131045;27;20039;-77
2023/01/26 14:45:46;;;;;;;2.10;1.27;;;;;;;;;;5132800;27;20046;-77
2023/01/26 14:48:15;;;;;;;5.30;1.70;;;;;;;;;;5131716;27;20066;-76
2023/01/26 14:50:45;;;;;;;3.50;1.48;;;;;;;;;;5139235;27;20468;-75
2023/01/26 14:53:20;;;;;;;4.32;1.38;;;;;;;;;;5131738;27;20066;-77
2023/01/26 14:55:47;;;;;;;3.95;1.35;;;;;;;;;;5136722;27;20046;-79
2023/01/26 14:58:22;;;;;;;2.50;1.13;;;;;;;;;;5136011;27;20055;-77
2023/01/26 15:00:48;;;;;;;1.45;1.10;;;;;;;;;;5139293;27;20043;-77
2023/01/26 15:03:28;;;;;;;3.85;1.00;;;;;;;;;;5126402;27;20077;-76
2023/01/26 15:06:28;;;;;;;3.20;1.10;;;;;;;;;;5140086;27;20112;-77
2023/01/26 15:08:56;;;;;;;4.53;1.20;;;;;;;;;;5078106;27;20480;-77
2023/01/26 15:14:35;;;;;;;6.30;1.20;;;;;;;;;;5130692;27;20158;-77
2023/01/26 15:17:02;;;;;;;3.13;1.17;;;;;;;;;;5131444;27;20039;-73
2023/01/26 15:19:38;;;;;;;3.47;1.25;;;;;;;;;;5128790;27;20043;-75
2023/01/26 15:22:05;;;;;;;2.33;1.30;;;;;;;;;;5132340;27;20051;-75
2023/01/26 15:24:31;;;;;;;5.03;1.23;;;;;;;;;;5127472;27;20295;-77
2023/01/26 15:27:06;;;;;;;6.53;1.55;;;;;;;;;;5141533;27;20038;-75
2023/01/26 15:29:33;;;;;;;5.65;1.48;;;;;;;;;;5115504;27;20050;-77
2023/01/26 15:31:59;;;;;;;2.25;1.50;;;;;;;;;;5142020;27;20137;-76
2023/01/26 15:34:36;;;;;;;4.95;1.50;;;;;;;;;;5135085;27;20045;-77
2023/01/26 15:37:27;;;;;;;2.13;1.30;;;;;;;;;;5123895;27;20039;-77
2023/01/26 15:39:53;;;;;;;3.03;1.60;;;;;;;;;;5140828;27;20251;-76
2023/01/26 15:42:27;;;;;;;7.57;1.27;;;;;;;;;;5127063;27;20070;-76
2023/01/26 15:44:54;;;;;;;5.93;1.20;;;;;;;;;;5129675;27;20621;-77
2023/01/26 15:47:19;;;;;;;3.92;1.42;;;;;;;;;;5139029;27;20630;-72
2023/01/26 15:49:45;;;;;;;2.33;1.20;;;;;;;;;;5127509;27;20042;-71
2023/01/26 15:52:16;;;;;;;3.53;1.67;;;;;;;;;;5130826;27;20051;-69